Pagina principale
METAR-TAF:

METAR-TAF

Aeroporti :

Aeroporto di Figari Corsica del Sud

Figari, Francia

latitudine: 41-30N, longitudine: 009-06E, altezza: 26 m

Osservazione

Il bollettino è stato emesso 18 minuti fa, alle 16:30 UTC
Vento 5 kt da ovest/sud-ovest
Temperature 10°C
Umidità 71%
Pressione 1020 hPa
Visibilità 10 km o più
Nuvoloso ad un'altezza di 3100 ft
Cielo coperto ad un'altezza di 3700 ft

METAR: LFKF 201630Z AUTO 25005KT 9999 BKN031 OVC037 10/05 Q1020 NOSIG

Ora: 17:48 (16:48 UTC)

Previsione

Il bollettino è stato emesso 2 ore e 48 minuti fa, alle 14:00 UTC
Previsione valida dal 20 alle 15 UTC al 21 alle 15 UTC
Vento 15 kt da ovest con raffiche fino a 25 kt
Visibilità 10 km o più
Poco nuvoloso ad un'altezza di 3000 ft
Nuvoloso ad un'altezza di 4000 ft
Evoluzione graduale
dal 20 alle 16 UTC al 20 alle 18 UTC
Vento 5 kt da ovest

TAF: LFKF 201400Z 2015/2115 27015G25KT 9999 FEW030 BKN040 BECMG 2016/2018 27005KT

Osservazioni e previsioni meteorologiche di più di 4000 aeroporti (messaggi METAR e TAF).

Le stazioni disponibili sono rappresentate dai dischi gialli e rossi sulla carta.

Puntare il mouse per vedere il nome della stazione.

Clicca sopra per visualizzare le osservazioni e previsioni meteorologiche.

Per cambiare la mappa : fare clic sui pulsanti verdi con una croce nera per ingrandire, il pulsante verde con un trattino per diminuire, o sulla freccia verde per le mappe adiacenti.


METAR-TAF: